sensor_id;sensor_type;location;lat;lon;timestamp;temperature;humidity
22765;DHT22;11549;50.852;3.816;2024-02-28T00:00:09;5.70;99.90
22765;DHT22;11549;50.852;3.816;2024-02-28T00:02:39;5.60;99.90
22765;DHT22;11549;50.852;3.816;2024-02-28T00:05:08;5.60;99.90
22765;DHT22;11549;50.852;3.816;2024-02-28T00:07:37;5.50;99.90
22765;DHT22;11549;50.852;3.816;2024-02-28T00:10:06;5.50;99.90
22765;DHT22;11549;50.852;3.816;2024-02-28T00:12:34;5.50;99.90
22765;DHT22;11549;50.852;3.816;2024-02-28T00:15:04;5.50;99.90
22765;DHT22;11549;50.852;3.816;2024-02-28T00:17:32;5.40;99.90
22765;DHT22;11549;50.852;3.816;2024-02-28T00:20:03;5.40;99.90
22765;DHT22;11549;50.852;3.816;2024-02-28T00:22:32;5.30;99.90
22765;DHT22;11549;50.852;3.816;2024-02-28T00:25:00;5.30;99.90
22765;DHT22;11549;50.852;3.816;2024-02-28T00:27:29;5.30;99.90
22765;DHT22;11549;50.852;3.816;2024-02-28T00:29:57;5.30;99.90
22765;DHT22;11549;50.852;3.816;2024-02-28T00:32:26;5.20;99.90
22765;DHT22;11549;50.852;3.816;2024-02-28T00:34:54;5.10;99.90
22765;DHT22;11549;50.852;3.816;2024-02-28T00:37:27;5.10;99.90
22765;DHT22;11549;50.852;3.816;2024-02-28T00:39:55;5.10;99.90
22765;DHT22;11549;50.852;3.816;2024-02-28T00:42:24;5.00;99.90
22765;DHT22;11549;50.852;3.816;2024-02-28T00:44:54;5.00;99.90
22765;DHT22;11549;50.852;3.816;2024-02-28T00:47:22;4.90;99.90
22765;DHT22;11549;50.852;3.816;2024-02-28T00:49:51;4.80;99.90
22765;DHT22;11549;50.852;3.816;2024-02-28T00:52:20;4.80;99.90
22765;DHT22;11549;50.852;3.816;2024-02-28T00:54:50;4.80;99.90
22765;DHT22;11549;50.852;3.816;2024-02-28T00:57:19;4.70;99.90
22765;DHT22;11549;50.852;3.816;2024-02-28T00:59:47;4.70;99.90
22765;DHT22;11549;50.852;3.816;2024-02-28T01:02:16;4.70;99.90
22765;DHT22;11549;50.852;3.816;2024-02-28T01:04:45;4.70;99.90
22765;DHT22;11549;50.852;3.816;2024-02-28T01:07:13;4.60;99.90
22765;DHT22;11549;50.852;3.816;2024-02-28T01:09:41;4.60;99.90
22765;DHT22;11549;50.852;3.816;2024-02-28T01:12:11;4.60;99.90
22765;DHT22;11549;50.852;3.816;2024-02-28T01:14:40;4.60;99.90
22765;DHT22;11549;50.852;3.816;2024-02-28T01:17:08;4.60;99.90
22765;DHT22;11549;50.852;3.816;2024-02-28T01:19:37;4.60;99.90
22765;DHT22;11549;50.852;3.816;2024-02-28T01:22:05;4.60;99.90
22765;DHT22;11549;50.852;3.816;2024-02-28T01:24:34;4.60;99.90
22765;DHT22;11549;50.852;3.816;2024-02-28T01:27:04;4.70;99.90
22765;DHT22;11549;50.852;3.816;2024-02-28T01:29:34;4.70;99.90
22765;DHT22;11549;50.852;3.816;2024-02-28T01:32:03;4.70;99.90
22765;DHT22;11549;50.852;3.816;2024-02-28T01:34:31;4.70;99.90
22765;DHT22;11549;50.852;3.816;2024-02-28T01:36:59;4.70;99.90
22765;DHT22;11549;50.852;3.816;2024-02-28T01:39:28;4.70;99.90
22765;DHT22;11549;50.852;3.816;2024-02-28T01:41:56;4.70;99.90
22765;DHT22;11549;50.852;3.816;2024-02-28T01:44:25;4.70;99.90
22765;DHT22;11549;50.852;3.816;2024-02-28T01:46:55;4.80;99.90
22765;DHT22;11549;50.852;3.816;2024-02-28T01:49:25;4.80;99.90
22765;DHT22;11549;50.852;3.816;2024-02-28T01:51:54;4.90;99.90
22765;DHT22;11549;50.852;3.816;2024-02-28T01:54:23;4.80;99.90
22765;DHT22;11549;50.852;3.816;2024-02-28T01:56:52;4.80;99.90
22765;DHT22;11549;50.852;3.816;2024-02-28T01:59:23;4.80;99.90
22765;DHT22;11549;50.852;3.816;2024-02-28T02:01:52;4.80;99.90
22765;DHT22;11549;50.852;3.816;2024-02-28T02:04:22;4.80;99.90
22765;DHT22;11549;50.852;3.816;2024-02-28T02:06:50;4.80;99.90
22765;DHT22;11549;50.852;3.816;2024-02-28T02:09:21;4.80;99.90
22765;DHT22;11549;50.852;3.816;2024-02-28T02:11:50;4.90;99.90
22765;DHT22;11549;50.852;3.816;2024-02-28T02:14:18;4.80;99.90
22765;DHT22;11549;50.852;3.816;2024-02-28T02:16:47;4.80;99.90
22765;DHT22;11549;50.852;3.816;2024-02-28T02:19:16;4.90;99.90
22765;DHT22;11549;50.852;3.816;2024-02-28T02:21:50;4.90;99.90
22765;DHT22;11549;50.852;3.816;2024-02-28T02:24:22;4.80;99.90
22765;DHT22;11549;50.852;3.816;2024-02-28T02:26:55;4.80;99.90
22765;DHT22;11549;50.852;3.816;2024-02-28T02:29:23;4.80;99.90
22765;DHT22;11549;50.852;3.816;2024-02-28T02:31:52;4.70;99.90
22765;DHT22;11549;50.852;3.816;2024-02-28T02:34:20;4.70;99.90
22765;DHT22;11549;50.852;3.816;2024-02-28T02:36:48;4.80;99.90
22765;DHT22;11549;50.852;3.816;2024-02-28T02:39:17;4.90;99.90
22765;DHT22;11549;50.852;3.816;2024-02-28T02:41:46;4.90;99.90
22765;DHT22;11549;50.852;3.816;2024-02-28T02:44:15;4.80;99.90
22765;DHT22;11549;50.852;3.816;2024-02-28T02:46:43;4.80;99.90
22765;DHT22;11549;50.852;3.816;2024-02-28T02:49:12;4.80;99.90
22765;DHT22;11549;50.852;3.816;2024-02-28T02:51:40;4.90;99.90
22765;DHT22;11549;50.852;3.816;2024-02-28T02:54:10;4.80;99.90
22765;DHT22;11549;50.852;3.816;2024-02-28T02:56:41;4.80;99.90
22765;DHT22;11549;50.852;3.816;2024-02-28T02:59:12;4.80;99.90
22765;DHT22;11549;50.852;3.816;2024-02-28T03:01:40;4.80;99.90
22765;DHT22;11549;50.852;3.816;2024-02-28T03:04:09;4.90;99.90
22765;DHT22;11549;50.852;3.816;2024-02-28T03:06:37;4.80;99.90
22765;DHT22;11549;50.852;3.816;2024-02-28T03:09:05;4.80;99.90
22765;DHT22;11549;50.852;3.816;2024-02-28T03:11:34;4.80;99.90
22765;DHT22;11549;50.852;3.816;2024-02-28T03:14:03;4.70;99.90
22765;DHT22;11549;50.852;3.816;2024-02-28T03:16:32;4.70;99.90
22765;DHT22;11549;50.852;3.816;2024-02-28T03:19:04;4.70;99.90
22765;DHT22;11549;50.852;3.816;2024-02-28T03:21:33;4.70;99.90
22765;DHT22;11549;50.852;3.816;2024-02-28T03:24:01;4.70;99.90
22765;DHT22;11549;50.852;3.816;2024-02-28T03:26:30;4.70;99.90
22765;DHT22;11549;50.852;3.816;2024-02-28T03:28:59;4.60;99.90
22765;DHT22;11549;50.852;3.816;2024-02-28T03:31:28;4.70;99.90
22765;DHT22;11549;50.852;3.816;2024-02-28T03:33:58;4.60;99.90
22765;DHT22;11549;50.852;3.816;2024-02-28T03:36:28;4.70;99.90
22765;DHT22;11549;50.852;3.816;2024-02-28T03:38:56;4.60;99.90
22765;DHT22;11549;50.852;3.816;2024-02-28T03:41:24;4.60;99.90
22765;DHT22;11549;50.852;3.816;2024-02-28T03:43:53;4.70;99.90
22765;DHT22;11549;50.852;3.816;2024-02-28T03:46:21;4.70;99.90
22765;DHT22;11549;50.852;3.816;2024-02-28T03:48:50;4.80;99.90
22765;DHT22;11549;50.852;3.816;2024-02-28T03:51:20;4.90;99.90
22765;DHT22;11549;50.852;3.816;2024-02-28T03:53:48;5.00;99.90
22765;DHT22;11549;50.852;3.816;2024-02-28T03:56:22;4.90;99.90
22765;DHT22;11549;50.852;3.816;2024-02-28T03:58:52;4.90;99.90
22765;DHT22;11549;50.852;3.816;2024-02-28T04:01:21;4.90;99.90
22765;DHT22;11549;50.852;3.816;2024-02-28T04:03:50;4.90;99.90
22765;DHT22;11549;50.852;3.816;2024-02-28T04:06:19;5.00;99.90
22765;DHT22;11549;50.852;3.816;2024-02-28T04:08:48;5.10;99.90
22765;DHT22;11549;50.852;3.816;2024-02-28T04:11:16;5.10;99.90
22765;DHT22;11549;50.852;3.816;2024-02-28T04:13:45;5.10;99.90
22765;DHT22;11549;50.852;3.816;2024-02-28T04:16:13;5.10;99.90
22765;DHT22;11549;50.852;3.816;2024-02-28T04:18:42;5.20;99.90
22765;DHT22;11549;50.852;3.816;2024-02-28T04:21:10;5.20;99.90
22765;DHT22;11549;50.852;3.816;2024-02-28T04:23:40;5.20;99.90
22765;DHT22;11549;50.852;3.816;2024-02-28T04:26:11;5.30;99.90
22765;DHT22;11549;50.852;3.816;2024-02-28T04:28:40;5.40;99.90
22765;DHT22;11549;50.852;3.816;2024-02-28T04:31:09;5.40;99.90
22765;DHT22;11549;50.852;3.816;2024-02-28T04:33:37;5.40;99.90
22765;DHT22;11549;50.852;3.816;2024-02-28T04:36:06;5.40;99.90
22765;DHT22;11549;50.852;3.816;2024-02-28T04:38:34;5.40;99.90
22765;DHT22;11549;50.852;3.816;2024-02-28T04:41:04;5.50;99.90
22765;DHT22;11549;50.852;3.816;2024-02-28T04:43:32;5.50;99.90
22765;DHT22;11549;50.852;3.816;2024-02-28T04:46:02;5.60;99.90
22765;DHT22;11549;50.852;3.816;2024-02-28T04:48:31;5.60;99.90
22765;DHT22;11549;50.852;3.816;2024-02-28T04:51:00;5.70;99.90
22765;DHT22;11549;50.852;3.816;2024-02-28T04:53:28;5.70;99.90
22765;DHT22;11549;50.852;3.816;2024-02-28T04:55:57;5.70;99.90
22765;DHT22;11549;50.852;3.816;2024-02-28T04:58:27;5.70;99.90
22765;DHT22;11549;50.852;3.816;2024-02-28T05:00:56;5.70;99.90
22765;DHT22;11549;50.852;3.816;2024-02-28T05:03:25;5.70;99.90
22765;DHT22;11549;50.852;3.816;2024-02-28T05:05:53;5.70;99.90
22765;DHT22;11549;50.852;3.816;2024-02-28T05:08:22;5.90;99.90
22765;DHT22;11549;50.852;3.816;2024-02-28T05:10:50;5.90;99.90
22765;DHT22;11549;50.852;3.816;2024-02-28T05:13:19;5.70;99.90
22765;DHT22;11549;50.852;3.816;2024-02-28T05:15:50;5.60;99.90
22765;DHT22;11549;50.852;3.816;2024-02-28T05:18:19;5.50;99.90
22765;DHT22;11549;50.852;3.816;2024-02-28T05:20:47;5.20;99.90
22765;DHT22;11549;50.852;3.816;2024-02-28T05:23:16;5.10;99.90
22765;DHT22;11549;50.852;3.816;2024-02-28T05:25:45;5.00;99.90
22765;DHT22;11549;50.852;3.816;2024-02-28T05:28:14;4.90;99.90
22765;DHT22;11549;50.852;3.816;2024-02-28T05:30:43;5.00;99.90
22765;DHT22;11549;50.852;3.816;2024-02-28T05:33:17;5.00;99.90
22765;DHT22;11549;50.852;3.816;2024-02-28T05:35:45;4.90;99.90
22765;DHT22;11549;50.852;3.816;2024-02-28T05:38:14;4.90;99.90
22765;DHT22;11549;50.852;3.816;2024-02-28T05:40:42;4.80;99.90
22765;DHT22;11549;50.852;3.816;2024-02-28T05:43:11;4.70;99.90
22765;DHT22;11549;50.852;3.816;2024-02-28T05:45:39;4.60;99.90
22765;DHT22;11549;50.852;3.816;2024-02-28T05:48:08;4.60;99.90
22765;DHT22;11549;50.852;3.816;2024-02-28T05:50:38;4.50;99.90
22765;DHT22;11549;50.852;3.816;2024-02-28T05:53:06;4.60;99.90
22765;DHT22;11549;50.852;3.816;2024-02-28T05:55:35;4.70;99.90
22765;DHT22;11549;50.852;3.816;2024-02-28T05:58:03;4.70;99.90
22765;DHT22;11549;50.852;3.816;2024-02-28T06:00:31;4.70;99.90
22765;DHT22;11549;50.852;3.816;2024-02-28T06:03:00;4.80;99.90
22765;DHT22;11549;50.852;3.816;2024-02-28T06:05:28;4.70;99.90
22765;DHT22;11549;50.852;3.816;2024-02-28T06:07:58;4.60;99.90
22765;DHT22;11549;50.852;3.816;2024-02-28T06:10:27;4.60;99.90
22765;DHT22;11549;50.852;3.816;2024-02-28T06:12:56;4.60;99.90
22765;DHT22;11549;50.852;3.816;2024-02-28T06:15:25;4.70;99.90
22765;DHT22;11549;50.852;3.816;2024-02-28T06:17:53;4.90;99.90
22765;DHT22;11549;50.852;3.816;2024-02-28T06:20:24;4.90;99.90
22765;DHT22;11549;50.852;3.816;2024-02-28T06:22:52;4.60;99.90
22765;DHT22;11549;50.852;3.816;2024-02-28T06:25:22;4.40;99.90
22765;DHT22;11549;50.852;3.816;2024-02-28T06:27:52;4.30;99.90
22765;DHT22;11549;50.852;3.816;2024-02-28T06:30:20;4.30;99.90
22765;DHT22;11549;50.852;3.816;2024-02-28T06:32:48;4.20;99.90
22765;DHT22;11549;50.852;3.816;2024-02-28T06:35:17;4.10;99.90
22765;DHT22;11549;50.852;3.816;2024-02-28T06:37:45;4.10;99.90
22765;DHT22;11549;50.852;3.816;2024-02-28T06:40:17;4.30;99.90
22765;DHT22;11549;50.852;3.816;2024-02-28T06:42:47;4.20;99.90
22765;DHT22;11549;50.852;3.816;2024-02-28T06:45:15;4.30;99.90
22765;DHT22;11549;50.852;3.816;2024-02-28T06:47:44;4.30;99.90
22765;DHT22;11549;50.852;3.816;2024-02-28T06:50:13;4.40;99.90
22765;DHT22;11549;50.852;3.816;2024-02-28T06:52:41;4.40;99.90
22765;DHT22;11549;50.852;3.816;2024-02-28T06:55:09;4.30;99.90
22765;DHT22;11549;50.852;3.816;2024-02-28T06:57:39;4.30;99.90
22765;DHT22;11549;50.852;3.816;2024-02-28T07:00:10;4.30;99.90
22765;DHT22;11549;50.852;3.816;2024-02-28T07:02:41;4.40;99.90
22765;DHT22;11549;50.852;3.816;2024-02-28T07:05:10;4.30;99.90
22765;DHT22;11549;50.852;3.816;2024-02-28T07:07:38;4.30;99.90
22765;DHT22;11549;50.852;3.816;2024-02-28T07:10:07;4.30;99.90
22765;DHT22;11549;50.852;3.816;2024-02-28T07:12:36;4.40;99.90
22765;DHT22;11549;50.852;3.816;2024-02-28T07:15:05;4.60;99.90
22765;DHT22;11549;50.852;3.816;2024-02-28T07:17:35;4.60;99.90
22765;DHT22;11549;50.852;3.816;2024-02-28T07:20:04;4.60;99.90
22765;DHT22;11549;50.852;3.816;2024-02-28T07:22:33;4.70;99.90
22765;DHT22;11549;50.852;3.816;2024-02-28T07:25:03;4.60;99.90
22765;DHT22;11549;50.852;3.816;2024-02-28T07:27:32;4.70;99.90
22765;DHT22;11549;50.852;3.816;2024-02-28T07:30:01;4.80;99.90
22765;DHT22;11549;50.852;3.816;2024-02-28T07:32:30;4.70;99.90
22765;DHT22;11549;50.852;3.816;2024-02-28T07:35:03;4.80;99.90
22765;DHT22;11549;50.852;3.816;2024-02-28T07:37:32;4.90;99.90
22765;DHT22;11549;50.852;3.816;2024-02-28T07:40:00;4.90;99.90
22765;DHT22;11549;50.852;3.816;2024-02-28T07:42:30;4.80;99.90
22765;DHT22;11549;50.852;3.816;2024-02-28T07:44:58;4.80;99.90
22765;DHT22;11549;50.852;3.816;2024-02-28T07:47:27;4.90;99.90
22765;DHT22;11549;50.852;3.816;2024-02-28T07:49:55;5.00;99.90
22765;DHT22;11549;50.852;3.816;2024-02-28T07:52:25;5.00;99.90
22765;DHT22;11549;50.852;3.816;2024-02-28T07:54:53;5.10;99.90
22765;DHT22;11549;50.852;3.816;2024-02-28T07:57:22;5.10;99.90
22765;DHT22;11549;50.852;3.816;2024-02-28T07:59:50;5.20;99.90
22765;DHT22;11549;50.852;3.816;2024-02-28T08:02:19;5.20;99.90
22765;DHT22;11549;50.852;3.816;2024-02-28T08:04:48;5.20;99.90
22765;DHT22;11549;50.852;3.816;2024-02-28T08:07:18;5.20;99.90
22765;DHT22;11549;50.852;3.816;2024-02-28T08:09:47;5.40;99.90
22765;DHT22;11549;50.852;3.816;2024-02-28T08:12:16;5.40;99.90
22765;DHT22;11549;50.852;3.816;2024-02-28T08:14:44;5.50;99.90
22765;DHT22;11549;50.852;3.816;2024-02-28T08:17:12;5.50;99.90
22765;DHT22;11549;50.852;3.816;2024-02-28T08:19:42;5.60;99.90
22765;DHT22;11549;50.852;3.816;2024-02-28T08:22:10;5.60;99.90
22765;DHT22;11549;50.852;3.816;2024-02-28T08:24:38;5.60;99.90
22765;DHT22;11549;50.852;3.816;2024-02-28T08:27:08;5.50;99.90
22765;DHT22;11549;50.852;3.816;2024-02-28T08:29:40;5.70;99.90
22765;DHT22;11549;50.852;3.816;2024-02-28T08:32:10;5.60;99.90
22765;DHT22;11549;50.852;3.816;2024-02-28T08:34:42;5.70;99.90
22765;DHT22;11549;50.852;3.816;2024-02-28T08:37:14;5.70;99.90
22765;DHT22;11549;50.852;3.816;2024-02-28T08:39:44;5.70;99.90
22765;DHT22;11549;50.852;3.816;2024-02-28T08:42:14;5.90;99.90
22765;DHT22;11549;50.852;3.816;2024-02-28T08:44:42;6.00;99.90
22765;DHT22;11549;50.852;3.816;2024-02-28T08:47:10;5.90;99.90
22765;DHT22;11549;50.852;3.816;2024-02-28T08:49:39;6.00;99.90
22765;DHT22;11549;50.852;3.816;2024-02-28T08:52:07;6.00;99.90
22765;DHT22;11549;50.852;3.816;2024-02-28T08:54:36;6.10;99.90
22765;DHT22;11549;50.852;3.816;2024-02-28T08:57:05;6.10;99.90
22765;DHT22;11549;50.852;3.816;2024-02-28T08:59:35;6.20;99.90
22765;DHT22;11549;50.852;3.816;2024-02-28T09:02:04;6.40;99.90
22765;DHT22;11549;50.852;3.816;2024-02-28T09:04:32;6.50;99.90
22765;DHT22;11549;50.852;3.816;2024-02-28T09:07:01;6.60;99.90
22765;DHT22;11549;50.852;3.816;2024-02-28T09:09:29;6.80;99.90
22765;DHT22;11549;50.852;3.816;2024-02-28T09:12:01;7.00;99.90
22765;DHT22;11549;50.852;3.816;2024-02-28T09:14:30;7.10;99.90
22765;DHT22;11549;50.852;3.816;2024-02-28T09:17:00;7.20;99.90
22765;DHT22;11549;50.852;3.816;2024-02-28T09:19:31;7.50;99.90
22765;DHT22;11549;50.852;3.816;2024-02-28T09:21:59;7.70;99.90
22765;DHT22;11549;50.852;3.816;2024-02-28T09:24:28;7.70;99.90
22765;DHT22;11549;50.852;3.816;2024-02-28T09:26:56;7.90;99.90
22765;DHT22;11549;50.852;3.816;2024-02-28T09:29:25;8.20;99.90
22765;DHT22;11549;50.852;3.816;2024-02-28T09:31:53;8.30;99.90
22765;DHT22;11549;50.852;3.816;2024-02-28T09:34:23;8.40;99.90
22765;DHT22;11549;50.852;3.816;2024-02-28T09:36:51;8.50;99.90
22765;DHT22;11549;50.852;3.816;2024-02-28T09:39:20;8.70;99.90
22765;DHT22;11549;50.852;3.816;2024-02-28T09:41:49;8.80;99.90
22765;DHT22;11549;50.852;3.816;2024-02-28T09:44:18;8.90;99.90
22765;DHT22;11549;50.852;3.816;2024-02-28T09:46:50;9.10;99.90
22765;DHT22;11549;50.852;3.816;2024-02-28T09:49:19;9.20;99.90
22765;DHT22;11549;50.852;3.816;2024-02-28T09:51:49;9.30;99.90
22765;DHT22;11549;50.852;3.816;2024-02-28T09:54:18;9.50;99.90
22765;DHT22;11549;50.852;3.816;2024-02-28T09:56:47;9.60;99.90
22765;DHT22;11549;50.852;3.816;2024-02-28T09:59:17;9.70;99.90
22765;DHT22;11549;50.852;3.816;2024-02-28T10:01:56;9.80;99.90
22765;DHT22;11549;50.852;3.816;2024-02-28T10:04:26;9.60;99.90
22765;DHT22;11549;50.852;3.816;2024-02-28T10:06:57;9.60;99.90
22765;DHT22;11549;50.852;3.816;2024-02-28T10:09:25;9.70;99.90
22765;DHT22;11549;50.852;3.816;2024-02-28T10:11:54;9.70;99.90
22765;DHT22;11549;50.852;3.816;2024-02-28T10:14:23;9.80;99.90
22765;DHT22;11549;50.852;3.816;2024-02-28T10:16:52;10.00;99.90
22765;DHT22;11549;50.852;3.816;2024-02-28T10:19:21;10.00;99.90
22765;DHT22;11549;50.852;3.816;2024-02-28T10:21:50;10.00;99.90
22765;DHT22;11549;50.852;3.816;2024-02-28T10:24:21;10.00;99.90
22765;DHT22;11549;50.852;3.816;2024-02-28T10:26:52;9.90;99.90
22765;DHT22;11549;50.852;3.816;2024-02-28T10:29:23;9.90;99.90
22765;DHT22;11549;50.852;3.816;2024-02-28T10:31:52;9.90;99.90
22765;DHT22;11549;50.852;3.816;2024-02-28T10:34:23;10.00;99.90
22765;DHT22;11549;50.852;3.816;2024-02-28T10:36:52;10.20;99.90
22765;DHT22;11549;50.852;3.816;2024-02-28T10:39:22;10.30;99.90
22765;DHT22;11549;50.852;3.816;2024-02-28T10:41:52;10.50;99.90
22765;DHT22;11549;50.852;3.816;2024-02-28T10:44:21;10.50;99.90
22765;DHT22;11549;50.852;3.816;2024-02-28T10:46:50;10.60;99.90
22765;DHT22;11549;50.852;3.816;2024-02-28T10:49:22;10.70;99.90
22765;DHT22;11549;50.852;3.816;2024-02-28T10:51:53;10.60;99.90
22765;DHT22;11549;50.852;3.816;2024-02-28T10:54:29;10.70;99.90
22765;DHT22;11549;50.852;3.816;2024-02-28T10:56:58;10.70;99.90
22765;DHT22;11549;50.852;3.816;2024-02-28T10:59:28;10.60;99.90
22765;DHT22;11549;50.852;3.816;2024-02-28T11:01:58;10.50;99.90
22765;DHT22;11549;50.852;3.816;2024-02-28T11:04:26;10.40;99.90
22765;DHT22;11549;50.852;3.816;2024-02-28T11:06:55;10.40;99.90
22765;DHT22;11549;50.852;3.816;2024-02-28T11:09:28;10.50;99.90
22765;DHT22;11549;50.852;3.816;2024-02-28T11:11:57;10.40;99.90
22765;DHT22;11549;50.852;3.816;2024-02-28T11:14:26;10.40;99.90
22765;DHT22;11549;50.852;3.816;2024-02-28T11:17:02;10.40;99.90
22765;DHT22;11549;50.852;3.816;2024-02-28T11:19:32;10.40;99.90
22765;DHT22;11549;50.852;3.816;2024-02-28T11:22:02;10.40;99.90
22765;DHT22;11549;50.852;3.816;2024-02-28T11:24:35;10.50;99.90
22765;DHT22;11549;50.852;3.816;2024-02-28T11:27:05;10.50;99.90
22765;DHT22;11549;50.852;3.816;2024-02-28T11:29:34;10.50;99.90
22765;DHT22;11549;50.852;3.816;2024-02-28T11:32:03;10.50;99.90
22765;DHT22;11549;50.852;3.816;2024-02-28T11:34:32;10.50;99.90
22765;DHT22;11549;50.852;3.816;2024-02-28T11:37:00;10.60;99.90
22765;DHT22;11549;50.852;3.816;2024-02-28T11:39:29;10.60;99.90
22765;DHT22;11549;50.852;3.816;2024-02-28T11:42:10;10.70;99.90
22765;DHT22;11549;50.852;3.816;2024-02-28T11:44:40;10.70;99.90
22765;DHT22;11549;50.852;3.816;2024-02-28T11:47:09;10.80;99.90
22765;DHT22;11549;50.852;3.816;2024-02-28T11:49:38;10.90;99.90
22765;DHT22;11549;50.852;3.816;2024-02-28T11:52:06;10.90;99.90
22765;DHT22;11549;50.852;3.816;2024-02-28T11:54:36;10.80;99.90
22765;DHT22;11549;50.852;3.816;2024-02-28T11:57:05;10.80;99.90
22765;DHT22;11549;50.852;3.816;2024-02-28T11:59:34;10.90;99.90
22765;DHT22;11549;50.852;3.816;2024-02-28T12:02:11;10.90;99.90
22765;DHT22;11549;50.852;3.816;2024-02-28T12:04:41;11.00;99.90
22765;DHT22;11549;50.852;3.816;2024-02-28T12:07:10;11.00;99.90
22765;DHT22;11549;50.852;3.816;2024-02-28T12:09:38;11.10;99.90
22765;DHT22;11549;50.852;3.816;2024-02-28T12:12:09;11.10;99.90
22765;DHT22;11549;50.852;3.816;2024-02-28T12:14:38;11.20;99.90
22765;DHT22;11549;50.852;3.816;2024-02-28T12:17:09;11.20;99.90
22765;DHT22;11549;50.852;3.816;2024-02-28T12:19:39;11.30;99.90
22765;DHT22;11549;50.852;3.816;2024-02-28T12:22:07;11.30;99.90
22765;DHT22;11549;50.852;3.816;2024-02-28T12:24:36;11.50;99.90
22765;DHT22;11549;50.852;3.816;2024-02-28T12:27:05;11.40;99.90
22765;DHT22;11549;50.852;3.816;2024-02-28T12:29:36;11.40;99.90
22765;DHT22;11549;50.852;3.816;2024-02-28T12:32:06;11.50;99.90
22765;DHT22;11549;50.852;3.816;2024-02-28T12:34:35;11.60;99.90
22765;DHT22;11549;50.852;3.816;2024-02-28T12:37:04;11.50;99.90
22765;DHT22;11549;50.852;3.816;2024-02-28T12:39:37;11.50;99.90
22765;DHT22;11549;50.852;3.816;2024-02-28T12:42:07;11.40;99.90
22765;DHT22;11549;50.852;3.816;2024-02-28T12:44:35;11.50;99.90
22765;DHT22;11549;50.852;3.816;2024-02-28T12:47:06;11.50;99.90
22765;DHT22;11549;50.852;3.816;2024-02-28T12:49:35;11.40;99.90
22765;DHT22;11549;50.852;3.816;2024-02-28T12:52:04;11.40;99.90
22765;DHT22;11549;50.852;3.816;2024-02-28T12:54:32;11.30;99.90
22765;DHT22;11549;50.852;3.816;2024-02-28T12:57:01;11.30;99.90
22765;DHT22;11549;50.852;3.816;2024-02-28T12:59:32;11.20;99.90
22765;DHT22;11549;50.852;3.816;2024-02-28T13:02:00;11.20;99.90
22765;DHT22;11549;50.852;3.816;2024-02-28T13:04:30;11.30;99.90
22765;DHT22;11549;50.852;3.816;2024-02-28T13:06:59;11.40;99.90
22765;DHT22;11549;50.852;3.816;2024-02-28T13:09:27;11.40;99.90
22765;DHT22;11549;50.852;3.816;2024-02-28T13:11:56;11.40;99.90
22765;DHT22;11549;50.852;3.816;2024-02-28T13:14:27;11.40;99.90
22765;DHT22;11549;50.852;3.816;2024-02-28T13:16:55;11.40;99.90
22765;DHT22;11549;50.852;3.816;2024-02-28T13:19:31;11.50;99.90
22765;DHT22;11549;50.852;3.816;2024-02-28T13:21:59;11.70;99.90
22765;DHT22;11549;50.852;3.816;2024-02-28T13:24:28;11.70;99.90
22765;DHT22;11549;50.852;3.816;2024-02-28T13:26:56;11.70;99.90
22765;DHT22;11549;50.852;3.816;2024-02-28T13:29:25;11.70;99.90
22765;DHT22;11549;50.852;3.816;2024-02-28T13:31:54;11.70;99.90
22765;DHT22;11549;50.852;3.816;2024-02-28T13:34:22;11.80;99.90
22765;DHT22;11549;50.852;3.816;2024-02-28T13:36:52;11.90;99.90
22765;DHT22;11549;50.852;3.816;2024-02-28T13:39:21;12.00;99.90
22765;DHT22;11549;50.852;3.816;2024-02-28T13:41:50;12.10;99.90
22765;DHT22;11549;50.852;3.816;2024-02-28T13:44:19;12.10;99.90
22765;DHT22;11549;50.852;3.816;2024-02-28T13:46:48;12.10;99.90
22765;DHT22;11549;50.852;3.816;2024-02-28T13:49:19;12.10;99.90
22765;DHT22;11549;50.852;3.816;2024-02-28T13:51:47;12.20;99.90
22765;DHT22;11549;50.852;3.816;2024-02-28T13:54:18;12.10;99.90
22765;DHT22;11549;50.852;3.816;2024-02-28T13:56:47;12.20;99.90
22765;DHT22;11549;50.852;3.816;2024-02-28T13:59:15;12.30;99.90
22765;DHT22;11549;50.852;3.816;2024-02-28T14:01:43;12.40;99.90
22765;DHT22;11549;50.852;3.816;2024-02-28T14:04:12;12.50;99.90
22765;DHT22;11549;50.852;3.816;2024-02-28T14:06:41;12.50;99.90
22765;DHT22;11549;50.852;3.816;2024-02-28T14:09:09;12.40;99.90
22765;DHT22;11549;50.852;3.816;2024-02-28T14:11:39;12.40;99.90
22765;DHT22;11549;50.852;3.816;2024-02-28T14:14:08;12.40;99.90
22765;DHT22;11549;50.852;3.816;2024-02-28T14:16:36;12.30;99.90
22765;DHT22;11549;50.852;3.816;2024-02-28T14:19:05;12.20;99.90
22765;DHT22;11549;50.852;3.816;2024-02-28T14:21:33;12.10;99.90
22765;DHT22;11549;50.852;3.816;2024-02-28T14:24:02;12.10;99.90
22765;DHT22;11549;50.852;3.816;2024-02-28T14:26:31;12.20;99.90
22765;DHT22;11549;50.852;3.816;2024-02-28T14:29:01;12.20;99.90
22765;DHT22;11549;50.852;3.816;2024-02-28T14:31:32;12.30;99.90
22765;DHT22;11549;50.852;3.816;2024-02-28T14:34:01;12.20;99.90
22765;DHT22;11549;50.852;3.816;2024-02-28T14:36:32;12.50;99.90
22765;DHT22;11549;50.852;3.816;2024-02-28T14:39:00;12.40;99.90
22765;DHT22;11549;50.852;3.816;2024-02-28T14:41:29;12.50;99.90
22765;DHT22;11549;50.852;3.816;2024-02-28T14:44:03;12.50;99.90
22765;DHT22;11549;50.852;3.816;2024-02-28T14:46:32;12.30;99.90
22765;DHT22;11549;50.852;3.816;2024-02-28T14:49:00;12.20;99.90
22765;DHT22;11549;50.852;3.816;2024-02-28T14:51:30;12.20;99.90
22765;DHT22;11549;50.852;3.816;2024-02-28T14:53:58;12.20;99.90
22765;DHT22;11549;50.852;3.816;2024-02-28T14:56:27;12.20;99.90
22765;DHT22;11549;50.852;3.816;2024-02-28T14:58:56;12.10;99.90
22765;DHT22;11549;50.852;3.816;2024-02-28T15:01:26;12.00;99.90
22765;DHT22;11549;50.852;3.816;2024-02-28T15:03:55;12.00;99.90
22765;DHT22;11549;50.852;3.816;2024-02-28T15:06:24;11.90;99.90
22765;DHT22;11549;50.852;3.816;2024-02-28T15:08:52;11.70;99.90
22765;DHT22;11549;50.852;3.816;2024-02-28T15:11:21;11.60;99.90
22765;DHT22;11549;50.852;3.816;2024-02-28T15:13:49;11.60;99.90
22765;DHT22;11549;50.852;3.816;2024-02-28T15:16:18;11.60;99.90
22765;DHT22;11549;50.852;3.816;2024-02-28T15:18:48;11.60;99.90
22765;DHT22;11549;50.852;3.816;2024-02-28T15:21:16;11.60;99.90
22765;DHT22;11549;50.852;3.816;2024-02-28T15:23:45;11.50;99.90
22765;DHT22;11549;50.852;3.816;2024-02-28T15:26:16;11.50;99.90
22765;DHT22;11549;50.852;3.816;2024-02-28T15:28:49;11.50;99.90
22765;DHT22;11549;50.852;3.816;2024-02-28T15:31:18;11.50;99.90
22765;DHT22;11549;50.852;3.816;2024-02-28T15:33:49;11.50;99.90
22765;DHT22;11549;50.852;3.816;2024-02-28T15:36:19;11.40;99.90
22765;DHT22;11549;50.852;3.816;2024-02-28T15:38:47;11.40;99.90
22765;DHT22;11549;50.852;3.816;2024-02-28T15:41:16;11.30;99.90
22765;DHT22;11549;50.852;3.816;2024-02-28T15:43:45;11.20;99.90
22765;DHT22;11549;50.852;3.816;2024-02-28T15:46:14;11.20;99.90
22765;DHT22;11549;50.852;3.816;2024-02-28T15:48:44;11.30;99.90
22765;DHT22;11549;50.852;3.816;2024-02-28T15:51:14;11.30;99.90